Pagrindinis puslapis
METAR-TAF:

METAR-TAF

Oro uostai :

Davidas, Panama

platuma: 08-24N, ilguma: 082-25W, Aukštis: 29 m

Dabartinis oras

Ataskaita buvo paskelbta 36 minutes, ne 14:00 UTC
Vėjas 5 kt iš Šiaurės
Temperatūra 31°C
Drėgmė 55%
Slėgis 1010 hPa
Matomumas 10 km arba daugiau
Mažai debesys ne aukštis 1800 ft

METAR: MPDA 141400Z 35005KT 9999 FEW018 31/21 Q1010 NOSIG

Laikas: 09:36 (14:36 UTC)

Prognozė

Prognozė galioja nuo 14 metu 11 UTC su 15 metu 00 UTC
Vėjas 8 kt iš Šiaurės/Šiaurės Rytų
Matomumas 10 km arba daugiau
Išsisklaidę debesys ne aukštis 1800 ft
Laikinai
nuo 14 metu 16 UTC su 14 metu 20 UTC
Vėjas 20 kt iš Šiaurės/Šiaurės Rytų

TAF: MPDA 141100 1412/1424 02008KT 9999 SCT018 TEMPO 1416/1420 03020KT

Orai ataskaitas ir orų prognozės (METAR, TAF).

turimą stotys yra geltonos ir raudonos taškus žemėlapyje.

Perkelti pele per norėdami pamatyti stoties vardą.

Tada spustelėkite, norėdami matyti oro stebėjimo ir prognozės.

Norėdami pakeisti žemėlapį: spustelėkite ant žalios mygtukų su juodo kryžiaus žemyn,; žalią mygtuką su brūkšneliu, jei norite nutolinti; arba žalių rodyklių gretimoms žemėlapius.


METAR-TAF: